Time;durP1;ratioP1;P1;durP2;ratioP2;P2;SDS_P1;SDS_P2;PMS_P1;PMS_P2;Temp;Humidity;BMP_temperature;BMP_pressure;BME280_temperature;BME280_humidity;BME280_pressure;Samples;Min_cycle;Max_cycle;Signal;HPM_P1;HPM_P2
2022/09/23 00:00:24;;;;;;;3.77;3.43;;;15.00;97.10;;;;;;4994440;28;20189;-66
2022/09/23 00:02:51;;;;;;;3.43;3.07;;;15.00;97.10;;;;;;4997281;28;20185;-66
2022/09/23 00:05:17;;;;;;;4.20;3.33;;;14.90;97.20;;;;;;4998126;28;20284;-65
2022/09/23 00:07:42;;;;;;;4.23;3.17;;;14.90;97.50;;;;;;4997362;28;20468;-65
2022/09/23 00:10:08;;;;;;;3.97;3.60;;;14.90;97.50;;;;;;4972425;28;20441;-65
2022/09/23 00:12:34;;;;;;;4.00;3.43;;;14.90;97.80;;;;;;4996690;28;20861;-65
2022/09/23 00:14:59;;;;;;;5.70;3.40;;;14.90;97.90;;;;;;4998862;28;20280;-65
2022/09/23 00:17:26;;;;;;;3.77;3.37;;;14.90;98.00;;;;;;4996131;28;20192;-65
2022/09/23 00:19:53;;;;;;;3.90;3.60;;;14.80;98.40;;;;;;5000233;28;20181;-65
2022/09/23 00:22:18;;;;;;;4.37;3.20;;;14.80;98.50;;;;;;4996704;28;20479;-66
2022/09/23 00:24:44;;;;;;;5.00;3.20;;;14.80;98.70;;;;;;5002184;28;20518;-65
2022/09/23 00:27:09;;;;;;;4.20;3.67;;;14.80;98.90;;;;;;4998048;28;20185;-65
2022/09/23 00:29:35;;;;;;;5.37;3.90;;;14.70;99.20;;;;;;5001684;28;20553;-65
2022/09/23 00:32:01;;;;;;;7.40;4.00;;;14.70;99.20;;;;;;5002444;28;20272;-65
2022/09/23 00:34:28;;;;;;;5.13;3.40;;;14.70;99.40;;;;;;5001079;28;20435;-63
2022/09/23 00:36:55;;;;;;;4.53;3.93;;;14.70;99.60;;;;;;5001051;28;20424;-65
2022/09/23 00:39:22;;;;;;;8.30;4.37;;;14.70;99.70;;;;;;5003667;28;20440;-65
2022/09/23 00:41:47;;;;;;;4.33;3.80;;;14.60;99.90;;;;;;5005020;28;20803;-65
2022/09/23 00:44:58;;;;;;;4.30;3.30;;;14.60;99.90;;;;;;4998395;28;20419;-65
2022/09/23 00:47:53;;;;;;;5.20;3.50;;;14.60;99.90;;;;;;4996725;28;20216;-64
2022/09/23 00:50:41;;;;;;;4.07;3.33;;;14.60;99.90;;;;;;4993535;28;20671;-64
2022/09/23 00:53:11;;;;;;;3.90;3.50;;;14.50;99.90;;;;;;5001332;28;20428;-64
2022/09/23 00:56:01;;;;;;;4.70;3.47;;;14.50;99.90;;;;;;4996575;28;20866;-65
2022/09/23 00:58:30;;;;;;;5.83;4.00;;;14.50;99.90;;;;;;4996442;28;20448;-64
2022/09/23 01:00:58;;;;;;;4.90;4.10;;;14.50;99.90;;;;;;4998086;28;20815;-65
2022/09/23 01:03:24;;;;;;;4.33;3.90;;;14.50;99.90;;;;;;4995070;28;20470;-65
2022/09/23 01:05:51;;;;;;;4.27;3.87;;;14.40;99.90;;;;;;5001150;28;20471;-64
2022/09/23 01:08:18;;;;;;;6.00;5.40;;;14.40;99.90;;;;;;4994739;28;20849;-65
2022/09/23 01:10:47;;;;;;;5.13;4.53;;;14.40;99.90;;;;;;4982556;28;20452;-65
2022/09/23 01:13:39;;;;;;;6.73;5.00;;;14.40;99.90;;;;;;4992485;28;20436;-65
2022/09/23 01:16:15;;;;;;;6.57;5.50;;;14.40;99.90;;;;;;4976755;28;21126;-65
2022/09/23 01:18:52;;;;;;;9.20;5.10;;;14.40;99.90;;;;;;4996298;28;20489;-65
2022/09/23 01:21:20;;;;;;;6.37;5.33;;;14.30;99.90;;;;;;4995011;28;20538;-65
2022/09/23 01:24:19;;;;;;;6.67;4.77;;;14.30;99.90;;;;;;4996577;28;20856;-64
2022/09/23 01:26:57;;;;;;;6.27;4.80;;;14.20;99.90;;;;;;4995579;28;20537;-64
2022/09/23 01:29:44;;;;;;;5.57;5.07;;;14.20;99.90;;;;;;4996470;28;20431;-64
2022/09/23 01:32:36;;;;;;;6.47;4.47;;;14.10;99.90;;;;;;4996081;28;20432;-65
2022/09/23 01:35:54;;;;;;;6.73;5.03;;;14.10;99.90;;;;;;4995666;28;20463;-65
2022/09/23 01:38:38;;;;;;;10.47;4.40;;;14.00;99.90;;;;;;4898325;29;20554;-64
2022/09/23 01:41:33;;;;;;;3.90;3.50;;;14.00;99.90;;;;;;4997894;28;21558;-65
2022/09/23 01:44:18;;;;;;;4.90;4.07;;;13.90;99.90;;;;;;4995449;28;20478;-64
2022/09/23 01:46:55;;;;;;;7.60;4.30;;;13.90;99.90;;;;;;5000058;28;20531;-64
2022/09/23 01:49:34;;;;;;;10.23;4.90;;;13.80;99.90;;;;;;4997133;28;20481;-64
2022/09/23 01:52:18;;;;;;;4.27;3.87;;;13.80;99.90;;;;;;4997630;28;20526;-64
2022/09/23 01:55:17;;;;;;;5.67;4.30;;;13.80;99.90;;;;;;4995478;28;20457;-63
2022/09/23 01:57:48;;;;;;;6.03;4.63;;;13.80;99.90;;;;;;4992432;28;20488;-64
2022/09/23 02:00:17;;;;;;;4.60;4.17;;;13.70;99.90;;;;;;4994236;28;21056;-65
2022/09/23 02:02:48;;;;;;;5.73;4.40;;;13.70;99.90;;;;;;4995400;28;20460;-64
2022/09/23 02:05:29;;;;;;;4.83;4.33;;;13.70;99.90;;;;;;4998695;28;20539;-64
2022/09/23 02:08:00;;;;;;;4.83;4.13;;;13.60;99.90;;;;;;4998797;28;20464;-64
2022/09/23 02:10:29;;;;;;;5.07;4.57;;;13.60;99.90;;;;;;5000287;28;21025;-64
2022/09/23 02:13:04;;;;;;;6.00;4.63;;;13.50;99.90;;;;;;5001099;28;20416;-64
2022/09/23 02:15:48;;;;;;;7.10;4.43;;;13.40;99.90;;;;;;4996707;28;20802;-65
2022/09/23 02:18:23;;;;;;;7.00;4.37;;;13.50;99.90;;;;;;4995476;28;20454;-64
2022/09/23 02:20:51;;;;;;;7.53;4.93;;;13.40;99.90;;;;;;4992764;28;20786;-66
2022/09/23 02:23:32;;;;;;;7.87;4.97;;;13.30;99.90;;;;;;4991884;28;20446;-66
2022/09/23 02:26:13;;;;;;;6.40;4.47;;;13.20;99.90;;;;;;4998858;28;20463;-65
2022/09/23 02:29:06;;;;;;;5.70;4.33;;;13.20;99.90;;;;;;5001696;28;20984;-66
2022/09/23 02:31:42;;;;;;;4.87;4.30;;;13.20;99.90;;;;;;4998620;28;20440;-66
2022/09/23 02:34:20;;;;;;;5.20;4.70;;;13.20;99.90;;;;;;4996271;28;20446;-65
2022/09/23 02:37:09;;;;;;;5.20;4.70;;;13.20;99.90;;;;;;5001827;28;20927;-65
2022/09/23 02:40:12;;;;;;;7.27;4.90;;;13.10;99.90;;;;;;5000187;28;20533;-65
2022/09/23 02:42:52;;;;;;;8.50;5.50;;;13.00;99.90;;;;;;4997762;28;20479;-65
2022/09/23 02:45:18;;;;;;;6.80;5.17;;;13.00;99.90;;;;;;4996355;28;20463;-65
2022/09/23 02:47:47;;;;;;;8.03;4.97;;;13.00;99.90;;;;;;5000921;28;20522;-65
2022/09/23 02:50:12;;;;;;;5.47;4.83;;;13.00;99.90;;;;;;5000706;28;20193;-65
2022/09/23 02:52:38;;;;;;;6.00;4.60;;;12.90;99.90;;;;;;4998805;28;20440;-66
2022/09/23 02:55:10;;;;;;;7.00;5.10;;;12.80;99.90;;;;;;4995539;28;20211;-65
2022/09/23 02:57:36;;;;;;;8.40;5.20;;;12.70;99.90;;;;;;4997534;28;20292;-65
2022/09/23 03:00:03;;;;;;;6.03;4.83;;;12.70;99.90;;;;;;4993790;28;20516;-66
2022/09/23 03:03:05;;;;;;;4.83;4.33;;;12.60;99.90;;;;;;4999794;28;20193;-66
2022/09/23 03:05:39;;;;;;;6.80;4.60;;;12.60;99.90;;;;;;4997332;28;20937;-65
2022/09/23 03:08:21;;;;;;;5.43;4.03;;;12.60;99.90;;;;;;4996127;28;20811;-65
2022/09/23 03:11:04;;;;;;;4.73;4.07;;;12.60;99.90;;;;;;5000576;28;20532;-65
2022/09/23 03:13:54;;;;;;;3.93;3.53;;;12.60;99.90;;;;;;4995665;28;20960;-65
2022/09/23 03:16:55;;;;;;;4.13;3.63;;;12.60;99.90;;;;;;4999836;28;21076;-64
2022/09/23 03:19:23;;;;;;;3.97;3.57;;;12.50;99.90;;;;;;4981803;28;21224;-66
2022/09/23 03:21:59;;;;;;;4.90;3.83;;;12.60;99.90;;;;;;5000845;28;20436;-65
2022/09/23 03:24:29;;;;;;;5.27;3.77;;;12.60;99.90;;;;;;4999452;28;20424;-65
2022/09/23 03:26:55;;;;;;;8.10;4.70;;;12.60;99.90;;;;;;4997149;28;20447;-66
2022/09/23 03:29:22;;;;;;;6.70;4.40;;;12.60;99.90;;;;;;4996562;28;21148;-66
2022/09/23 03:31:47;;;;;;;4.93;4.20;;;12.60;99.90;;;;;;5001994;28;20598;-66
2022/09/23 03:34:34;;;;;;;6.60;4.00;;;12.60;99.90;;;;;;5002459;28;20432;-66
2022/09/23 03:37:06;;;;;;;7.30;5.77;;;12.60;99.90;;;;;;5002442;28;20273;-65
2022/09/23 03:39:39;;;;;;;4.40;4.00;;;12.60;99.90;;;;;;5001561;28;20910;-64
2022/09/23 03:42:15;;;;;;;6.10;4.10;;;12.50;99.90;;;;;;5004113;28;21085;-65
2022/09/23 03:44:46;;;;;;;5.77;3.73;;;12.50;99.90;;;;;;5002788;28;20443;-65
2022/09/23 03:47:13;;;;;;;7.90;4.30;;;12.50;99.90;;;;;;5003585;28;20507;-65
2022/09/23 03:49:41;;;;;;;4.67;3.73;;;12.40;99.90;;;;;;5002201;28;20440;-65
2022/09/23 03:52:07;;;;;;;5.27;4.77;;;12.40;99.90;;;;;;4997699;28;20454;-66
2022/09/23 03:54:33;;;;;;;5.57;4.53;;;12.40;99.90;;;;;;5000197;28;20969;-66
2022/09/23 03:57:00;;;;;;;5.87;4.60;;;12.40;99.90;;;;;;4997520;28;20181;-66
2022/09/23 03:59:26;;;;;;;5.57;4.30;;;12.40;99.90;;;;;;4997070;28;20213;-65
2022/09/23 04:01:52;;;;;;;5.60;4.40;;;12.30;99.90;;;;;;4997727;28;20435;-65
2022/09/23 04:04:18;;;;;;;5.63;4.40;;;12.40;99.90;;;;;;4995196;28;20523;-65
2022/09/23 04:06:44;;;;;;;5.43;4.80;;;12.40;99.90;;;;;;4992937;28;20440;-63
2022/09/23 04:09:10;;;;;;;5.03;3.90;;;12.40;99.90;;;;;;5001215;28;20275;-66
2022/09/23 04:11:36;;;;;;;5.43;4.37;;;12.30;99.90;;;;;;4983149;28;21171;-65
2022/09/23 04:14:02;;;;;;;5.10;4.40;;;12.40;99.90;;;;;;5000820;28;20177;-65
2022/09/23 04:16:27;;;;;;;6.30;5.10;;;12.40;99.90;;;;;;4998025;28;20486;-65
2022/09/23 04:18:53;;;;;;;4.90;4.40;;;12.40;99.90;;;;;;4999284;28;20523;-65
2022/09/23 04:21:18;;;;;;;7.97;4.00;;;12.40;99.90;;;;;;5000996;28;20186;-65
2022/09/23 04:23:45;;;;;;;6.80;4.93;;;12.40;99.90;;;;;;5001332;28;20752;-65
2022/09/23 04:26:13;;;;;;;5.20;4.70;;;12.30;99.90;;;;;;5000353;28;20622;-65
2022/09/23 04:28:38;;;;;;;7.27;5.00;;;12.30;99.90;;;;;;5002556;28;20465;-65
2022/09/23 04:31:06;;;;;;;6.93;4.70;;;12.30;99.90;;;;;;5003364;28;20442;-65
2022/09/23 04:33:32;;;;;;;6.13;4.57;;;12.30;99.90;;;;;;5001027;28;20185;-65
2022/09/23 04:35:57;;;;;;;5.93;4.77;;;12.30;99.90;;;;;;5002218;28;20428;-65
2022/09/23 04:38:23;;;;;;;6.50;4.77;;;12.30;99.90;;;;;;5002159;28;20427;-65
2022/09/23 04:40:49;;;;;;;6.50;4.73;;;12.30;99.90;;;;;;5001390;28;20181;-65
2022/09/23 04:43:15;;;;;;;8.53;4.40;;;12.20;99.90;;;;;;5001234;28;20180;-65
2022/09/23 04:45:42;;;;;;;6.93;4.87;;;12.00;99.90;;;;;;5004012;28;20446;-65
2022/09/23 04:48:09;;;;;;;7.93;4.80;;;12.00;99.90;;;;;;5005438;28;20830;-65
2022/09/23 04:50:35;;;;;;;5.97;4.83;;;12.10;99.90;;;;;;5001140;28;20428;-65
2022/09/23 04:53:01;;;;;;;5.93;4.70;;;12.10;99.90;;;;;;5002669;28;20975;-65
2022/09/23 04:55:27;;;;;;;7.37;5.20;;;12.20;99.90;;;;;;4999003;28;21378;-65
2022/09/23 04:57:52;;;;;;;5.50;4.80;;;12.20;99.90;;;;;;5000641;28;20516;-65
2022/09/23 05:00:18;;;;;;;6.30;4.90;;;12.10;99.90;;;;;;5001561;28;20956;-65
2022/09/23 05:02:45;;;;;;;7.63;5.60;;;12.00;99.90;;;;;;5000707;28;20247;-65
2022/09/23 05:05:11;;;;;;;5.50;4.73;;;12.00;99.90;;;;;;5003471;28;20680;-64
2022/09/23 05:07:38;;;;;;;5.80;4.80;;;12.00;99.90;;;;;;4986531;28;20510;-64
2022/09/23 05:10:04;;;;;;;6.80;5.10;;;12.00;99.90;;;;;;5002783;28;20438;-65
2022/09/23 05:12:29;;;;;;;7.50;4.73;;;12.00;99.90;;;;;;5000942;28;20439;-64
2022/09/23 05:14:55;;;;;;;6.30;4.67;;;11.90;99.90;;;;;;5004088;28;20511;-65
2022/09/23 05:17:20;;;;;;;8.63;5.33;;;11.90;99.90;;;;;;4998946;28;20665;-65
2022/09/23 05:19:46;;;;;;;8.73;4.57;;;11.90;99.90;;;;;;5000910;28;20255;-65
2022/09/23 05:22:12;;;;;;;6.00;4.60;;;12.00;99.90;;;;;;4999185;28;20792;-65
2022/09/23 05:24:37;;;;;;;5.63;4.97;;;12.00;99.90;;;;;;5000763;28;20712;-65
2022/09/23 05:27:07;;;;;;;7.80;4.93;;;12.00;99.90;;;;;;5004579;28;20181;-65
2022/09/23 05:29:33;;;;;;;5.57;4.93;;;12.00;99.90;;;;;;5000786;28;20189;-64
2022/09/23 05:32:00;;;;;;;5.00;4.10;;;12.00;99.90;;;;;;4998770;28;20917;-65
2022/09/23 05:34:26;;;;;;;5.00;4.50;;;12.10;99.90;;;;;;4998758;28;20510;-65
2022/09/23 05:36:51;;;;;;;10.50;4.87;;;12.10;99.90;;;;;;5002451;28;20511;-66
2022/09/23 05:39:17;;;;;;;7.10;4.00;;;12.00;99.90;;;;;;5001945;28;20189;-66
2022/09/23 05:41:42;;;;;;;8.70;5.00;;;12.10;99.90;;;;;;5001470;28;20678;-66
2022/09/23 05:44:09;;;;;;;4.73;4.13;;;12.10;99.90;;;;;;5000690;28;20714;-66
2022/09/23 05:46:34;;;;;;;5.73;4.60;;;12.10;99.90;;;;;;4999737;28;20424;-66
2022/09/23 05:49:01;;;;;;;8.20;4.27;;;12.10;99.90;;;;;;5001051;28;20220;-66
2022/09/23 05:51:27;;;;;;;5.17;4.30;;;12.00;99.90;;;;;;4999851;28;20186;-65
2022/09/23 05:53:54;;;;;;;8.47;4.97;;;12.00;99.90;;;;;;5003530;28;20435;-65
2022/09/23 05:56:26;;;;;;;9.50;4.40;;;11.90;99.90;;;;;;5004268;28;20465;-65
2022/09/23 05:58:54;;;;;;;6.33;4.53;;;11.90;99.90;;;;;;5001103;28;20535;-65
2022/09/23 06:01:23;;;;;;;5.50;4.40;;;11.90;99.90;;;;;;5004719;28;20443;-65
2022/09/23 06:03:53;;;;;;;7.87;4.67;;;11.90;99.90;;;;;;5006755;28;20490;-66
2022/09/23 06:06:24;;;;;;;5.33;4.40;;;11.90;99.90;;;;;;5005229;28;20456;-65
2022/09/23 06:08:50;;;;;;;6.63;4.50;;;11.90;99.90;;;;;;5006335;28;20550;-66
2022/09/23 06:11:16;;;;;;;11.20;4.80;;;11.90;99.90;;;;;;5000039;28;21009;-65
2022/09/23 06:13:41;;;;;;;4.97;4.10;;;11.90;99.90;;;;;;4986397;28;20181;-66
2022/09/23 06:16:10;;;;;;;10.07;4.50;;;11.90;99.90;;;;;;5009262;28;20542;-66
2022/09/23 06:18:44;;;;;;;11.77;4.67;;;11.90;99.90;;;;;;5002355;28;20688;-65
2022/09/23 06:21:13;;;;;;;6.60;4.80;;;11.90;99.90;;;;;;5004673;28;20483;-65
2022/09/23 06:23:38;;;;;;;9.40;5.00;;;11.90;99.90;;;;;;5001362;28;20447;-65
2022/09/23 06:26:06;;;;;;;6.07;4.90;;;11.90;99.90;;;;;;5005642;28;20460;-65
2022/09/23 06:28:33;;;;;;;7.37;4.50;;;11.90;99.90;;;;;;5005820;28;20207;-65
2022/09/23 06:31:02;;;;;;;9.33;5.60;;;11.90;99.90;;;;;;5003942;28;20587;-65
2022/09/23 06:33:27;;;;;;;5.90;5.00;;;12.00;99.90;;;;;;4998624;28;21197;-65
2022/09/23 06:35:58;;;;;;;6.60;4.77;;;12.10;99.90;;;;;;5004146;28;20460;-64
2022/09/23 06:38:25;;;;;;;4.60;3.90;;;12.10;99.90;;;;;;5006408;28;20200;-66
2022/09/23 06:40:52;;;;;;;4.47;4.03;;;12.20;99.90;;;;;;5002556;28;21118;-66
2022/09/23 06:43:18;;;;;;;4.73;4.23;;;12.30;99.90;;;;;;5003969;28;20436;-66
2022/09/23 06:45:43;;;;;;;5.93;5.07;;;12.30;99.90;;;;;;5005245;28;20877;-66
2022/09/23 06:48:09;;;;;;;7.00;4.23;;;12.30;99.90;;;;;;5004516;28;20475;-66
2022/09/23 06:50:35;;;;;;;4.43;4.03;;;12.40;99.90;;;;;;5002517;28;20181;-65
2022/09/23 06:53:02;;;;;;;4.97;4.20;;;12.50;99.90;;;;;;5005758;28;20178;-65
2022/09/23 06:55:27;;;;;;;7.63;4.40;;;12.50;99.90;;;;;;5004668;28;20450;-65
2022/09/23 06:57:56;;;;;;;4.30;3.90;;;12.50;99.90;;;;;;5005641;28;20429;-65
2022/09/23 07:00:22;;;;;;;6.10;4.57;;;12.60;99.90;;;;;;5005952;28;20196;-65
2022/09/23 07:02:48;;;;;;;5.80;4.57;;;12.60;99.90;;;;;;5004828;28;20415;-65
2022/09/23 07:05:17;;;;;;;4.77;4.33;;;12.60;99.90;;;;;;5005816;28;20905;-66
2022/09/23 07:07:43;;;;;;;4.87;4.30;;;12.70;99.90;;;;;;5002948;28;20304;-66
2022/09/23 07:10:10;;;;;;;7.40;4.60;;;12.70;99.90;;;;;;5004430;28;20424;-65
2022/09/23 07:12:36;;;;;;;4.87;4.30;;;12.80;99.90;;;;;;5005608;28;20922;-65
2022/09/23 07:15:03;;;;;;;4.43;4.03;;;12.80;99.90;;;;;;5002184;28;20992;-65
2022/09/23 07:17:29;;;;;;;5.27;4.00;;;12.90;99.90;;;;;;4999872;28;20451;-65
2022/09/23 07:19:55;;;;;;;6.60;4.53;;;13.00;99.90;;;;;;5007510;28;20412;-65
2022/09/23 07:22:23;;;;;;;6.93;4.80;;;13.00;99.90;;;;;;4984622;28;21048;-65
2022/09/23 07:24:48;;;;;;;5.93;4.70;;;13.10;99.90;;;;;;5005458;28;20201;-65
2022/09/23 07:27:15;;;;;;;5.33;4.20;;;13.10;99.90;;;;;;5005733;28;20427;-65
2022/09/23 07:29:41;;;;;;;7.07;4.73;;;13.10;99.90;;;;;;5005348;28;20576;-65
2022/09/23 07:32:07;;;;;;;5.20;4.70;;;13.20;99.90;;;;;;5002292;28;20444;-65
2022/09/23 07:34:33;;;;;;;9.57;5.20;;;13.20;99.90;;;;;;5003015;28;20450;-65
2022/09/23 07:36:59;;;;;;;5.60;4.63;;;13.40;99.90;;;;;;5001614;28;20420;-65
2022/09/23 07:39:24;;;;;;;5.90;5.13;;;13.40;99.90;;;;;;5004324;28;20191;-65
2022/09/23 07:41:50;;;;;;;9.00;5.13;;;13.40;99.90;;;;;;5002097;28;20243;-66
2022/09/23 07:44:19;;;;;;;8.17;5.43;;;13.40;99.90;;;;;;5002826;28;20276;-66
2022/09/23 07:46:44;;;;;;;5.63;5.03;;;13.40;99.90;;;;;;5004461;28;20412;-65
2022/09/23 07:49:10;;;;;;;7.10;4.83;;;13.40;99.90;;;;;;5004220;28;21396;-65
2022/09/23 07:51:37;;;;;;;5.67;5.10;;;13.50;99.90;;;;;;5000085;28;20189;-66
2022/09/23 07:54:07;;;;;;;4.97;4.53;;;13.60;99.90;;;;;;5005338;28;20282;-66
2022/09/23 07:56:34;;;;;;;7.10;5.00;;;13.60;99.90;;;;;;5002883;28;20464;-65
2022/09/23 07:59:00;;;;;;;8.77;5.30;;;13.60;99.90;;;;;;5004302;28;20424;-66
2022/09/23 08:01:38;;;;;;;10.97;5.50;;;13.60;99.90;;;;;;5008155;28;20559;-65
2022/09/23 08:04:15;;;;;;;7.10;6.13;;;13.70;99.90;;;;;;5003915;28;20416;-65
2022/09/23 08:06:47;;;;;;;6.53;5.33;;;13.70;99.90;;;;;;5000796;28;20456;-65
2022/09/23 08:09:14;;;;;;;6.23;5.60;;;13.80;99.90;;;;;;5006126;28;20472;-66
2022/09/23 08:11:40;;;;;;;6.50;5.30;;;13.80;99.90;;;;;;5000809;28;20428;-65
2022/09/23 08:14:14;;;;;;;6.73;5.27;;;13.80;99.90;;;;;;5002149;28;20460;-66
2022/09/23 08:16:40;;;;;;;5.50;5.00;;;13.90;99.90;;;;;;4999773;28;20461;-65
2022/09/23 08:19:07;;;;;;;13.10;5.50;;;13.90;99.90;;;;;;5005471;28;20435;-66
2022/09/23 08:21:33;;;;;;;6.23;5.60;;;13.90;99.90;;;;;;4999971;28;20439;-66
2022/09/23 08:23:59;;;;;;;7.00;5.50;;;13.80;99.90;;;;;;4999854;28;20444;-66
2022/09/23 08:26:25;;;;;;;8.90;6.23;;;13.90;99.90;;;;;;5005121;28;20431;-65
2022/09/23 08:28:55;;;;;;;10.57;6.80;;;14.00;99.90;;;;;;5003780;28;20217;-65
2022/09/23 08:31:21;;;;;;;7.73;5.90;;;14.00;99.90;;;;;;5001423;28;20453;-66
2022/09/23 08:33:47;;;;;;;7.10;6.30;;;14.00;99.90;;;;;;5004067;28;20428;-65
2022/09/23 08:36:13;;;;;;;8.83;5.70;;;14.00;99.90;;;;;;5004758;28;20965;-65
2022/09/23 08:38:38;;;;;;;9.60;6.13;;;14.10;99.90;;;;;;5001064;28;20216;-65
2022/09/23 08:41:04;;;;;;;6.40;5.80;;;14.00;99.90;;;;;;5000612;28;20728;-65
2022/09/23 08:43:33;;;;;;;9.47;6.30;;;14.00;99.90;;;;;;5003754;28;20195;-66
2022/09/23 08:46:09;;;;;;;10.53;6.07;;;14.00;99.90;;;;;;5002642;28;20201;-65
2022/09/23 08:48:44;;;;;;;6.30;5.70;;;14.10;99.90;;;;;;4998165;28;20877;-66
2022/09/23 08:51:25;;;;;;;9.43;6.03;;;14.10;99.90;;;;;;5004098;28;20427;-66
2022/09/23 08:53:51;;;;;;;11.80;6.90;;;14.20;99.90;;;;;;4983916;28;21109;-65
2022/09/23 08:56:21;;;;;;;5.97;5.47;;;14.20;99.90;;;;;;5002629;28;20444;-65
2022/09/23 08:58:57;;;;;;;6.47;5.47;;;14.20;99.90;;;;;;5001637;28;20432;-65
2022/09/23 09:01:35;;;;;;;8.73;6.10;;;14.20;99.90;;;;;;5002452;28;20414;-65
2022/09/23 09:04:18;;;;;;;7.23;5.53;;;14.30;99.90;;;;;;5001679;28;20847;-65
2022/09/23 09:06:57;;;;;;;5.60;5.10;;;14.40;99.90;;;;;;5000391;28;20444;-65
2022/09/23 09:09:47;;;;;;;10.10;6.13;;;14.40;99.90;;;;;;5004902;28;20557;-66
2022/09/23 09:12:21;;;;;;;6.20;5.60;;;14.50;99.90;;;;;;5002990;28;20420;-65
2022/09/23 09:14:58;;;;;;;5.80;5.30;;;14.60;99.90;;;;;;4980347;28;20977;-66
2022/09/23 09:18:00;;;;;;;7.90;6.23;;;14.70;99.90;;;;;;5000423;28;20477;-65
2022/09/23 09:20:36;;;;;;;5.93;5.33;;;14.80;99.90;;;;;;4976000;28;21087;-65
2022/09/23 09:23:21;;;;;;;6.63;6.03;;;14.90;99.90;;;;;;4983248;28;21182;-65
2022/09/23 09:25:52;;;;;;;7.40;5.90;;;15.10;99.90;;;;;;5005865;28;20456;-65
2022/09/23 09:28:25;;;;;;;8.30;6.40;;;15.10;99.90;;;;;;5002009;28;20467;-65
2022/09/23 09:30:55;;;;;;;8.07;5.97;;;15.10;99.90;;;;;;5003399;28;20432;-65
2022/09/23 09:33:27;;;;;;;10.80;7.33;;;15.20;99.90;;;;;;5002546;28;20427;-65
2022/09/23 09:36:27;;;;;;;6.30;5.70;;;15.20;99.90;;;;;;5002798;28;20450;-65
2022/09/23 09:38:55;;;;;;;8.37;6.23;;;15.20;99.90;;;;;;4999997;28;20456;-66
2022/09/23 09:41:23;;;;;;;7.47;5.30;;;15.30;99.90;;;;;;5003811;28;20423;-65
2022/09/23 09:43:58;;;;;;;9.70;5.53;;;15.40;99.90;;;;;;5002144;28;20424;-65
2022/09/23 09:46:49;;;;;;;8.73;6.10;;;15.40;99.90;;;;;;5004802;28;20529;-66
2022/09/23 09:49:24;;;;;;;8.50;6.13;;;15.50;99.90;;;;;;5001607;28;20865;-66
2022/09/23 09:52:12;;;;;;;6.93;6.23;;;15.60;99.90;;;;;;5000217;28;20624;-66
2022/09/23 09:54:38;;;;;;;8.20;5.83;;;15.60;99.90;;;;;;5003881;28;20438;-66
2022/09/23 09:57:10;;;;;;;9.40;6.20;;;15.70;99.90;;;;;;5000637;28;20412;-66
2022/09/23 09:59:40;;;;;;;6.63;5.50;;;15.80;99.90;;;;;;4996954;28;20440;-66
2022/09/23 10:02:27;;;;;;;6.00;5.47;;;15.80;99.90;;;;;;4983947;28;20432;-66
2022/09/23 10:04:59;;;;;;;6.53;5.80;;;15.90;99.90;;;;;;5000378;28;20473;-65
2022/09/23 10:07:28;;;;;;;8.23;5.60;;;16.00;99.90;;;;;;5005165;28;20442;-65
2022/09/23 10:09:54;;;;;;;8.70;7.13;;;16.00;99.90;;;;;;5003381;28;20535;-65
2022/09/23 10:12:22;;;;;;;6.70;6.10;;;16.10;99.90;;;;;;5003793;28;20424;-65
2022/09/23 10:14:51;;;;;;;8.33;6.00;;;16.20;99.90;;;;;;4985899;28;21043;-65
2022/09/23 10:17:33;;;;;;;10.73;6.57;;;16.20;99.90;;;;;;4996762;28;20459;-65
2022/09/23 10:20:08;;;;;;;6.50;5.17;;;16.20;99.90;;;;;;5000224;28;20408;-65
2022/09/23 10:22:37;;;;;;;8.07;7.27;;;16.30;99.90;;;;;;4998769;28;21168;-65
2022/09/23 10:25:08;;;;;;;11.03;5.87;;;16.30;99.90;;;;;;4999378;28;20527;-65
2022/09/23 10:27:35;;;;;;;6.80;5.67;;;16.30;99.90;;;;;;4997509;28;20452;-65
2022/09/23 10:30:22;;;;;;;5.87;5.27;;;16.40;99.90;;;;;;4997241;28;20432;-65
2022/09/23 10:32:49;;;;;;;10.80;5.67;;;16.50;99.90;;;;;;5000775;28;21034;-64
2022/09/23 10:35:17;;;;;;;7.10;6.10;;;16.60;99.90;;;;;;4983637;28;20499;-64
2022/09/23 10:37:50;;;;;;;6.30;5.30;;;16.80;99.90;;;;;;5002388;28;20451;-65
2022/09/23 10:46:59;;;;;;;7.03;5.10;;;17.00;99.90;;;;;;5003491;28;20543;-65
2022/09/23 10:49:56;;;;;;;6.07;5.43;;;16.90;99.90;;;;;;5001901;28;20470;-66
2022/09/23 10:52:36;;;;;;;6.00;4.70;;;17.10;99.90;;;;;;5002825;28;20848;-65
2022/09/23 10:55:19;;;;;;;5.03;4.50;;;17.20;99.90;;;;;;5005140;28;20963;-65
2022/09/23 10:57:52;;;;;;;5.00;4.50;;;17.30;99.90;;;;;;5006306;28;20454;-65
2022/09/23 11:00:22;;;;;;;7.67;4.80;;;17.30;99.90;;;;;;5003273;28;20443;-65
2022/09/23 11:03:08;;;;;;;5.30;4.80;;;17.40;99.90;;;;;;5002803;28;20435;-64
2022/09/23 11:05:59;;;;;;;4.30;3.90;;;17.50;99.90;;;;;;5001793;28;20474;-65
2022/09/23 11:08:45;;;;;;;5.50;4.63;;;17.60;99.90;;;;;;4997936;28;20979;-64
2022/09/23 11:11:47;;;;;;;6.50;4.70;;;17.70;99.90;;;;;;5003563;28;20436;-65
2022/09/23 11:14:28;;;;;;;5.23;4.50;;;17.80;99.90;;;;;;4987558;28;20992;-65
2022/09/23 11:17:14;;;;;;;5.83;5.10;;;17.90;99.90;;;;;;5003157;28;20459;-65
2022/09/23 11:20:20;;;;;;;7.33;4.40;;;17.90;99.90;;;;;;5003254;28;20768;-65
2022/09/23 11:23:10;;;;;;;6.03;4.50;;;18.10;99.90;;;;;;4995898;28;21229;-65
2022/09/23 11:25:42;;;;;;;7.13;4.60;;;18.20;99.90;;;;;;5003727;28;20466;-64
2022/09/23 11:28:28;;;;;;;6.50;5.27;;;18.40;99.90;;;;;;5002645;28;20475;-64
2022/09/23 11:31:19;;;;;;;7.60;4.50;;;18.50;99.90;;;;;;5003571;28;20433;-64
2022/09/23 11:34:19;;;;;;;5.53;4.80;;;18.60;99.90;;;;;;4998461;28;20427;-65
2022/09/23 11:36:56;;;;;;;6.50;4.30;;;18.70;99.90;;;;;;5001100;28;20824;-65
2022/09/23 11:39:35;;;;;;;9.83;4.30;;;18.80;99.90;;;;;;5009161;28;20443;-65
2022/09/23 11:42:08;;;;;;;5.57;4.00;;;19.00;99.90;;;;;;5002533;28;20419;-65
2022/09/23 11:44:42;;;;;;;6.10;4.20;;;19.20;99.90;;;;;;5001401;28;20582;-65
2022/09/23 11:47:14;;;;;;;4.53;4.13;;;19.50;99.90;;;;;;4988348;28;21032;-64
2022/09/23 11:49:48;;;;;;;6.90;4.40;;;19.80;99.90;;;;;;5000572;28;20559;-64
2022/09/23 11:52:35;;;;;;;5.90;4.23;;;20.10;99.90;;;;;;5003741;28;20437;-66
2022/09/23 11:55:21;;;;;;;6.53;4.27;;;20.40;99.90;;;;;;5002041;28;20467;-66
2022/09/23 11:58:09;;;;;;;4.70;4.30;;;21.00;99.90;;;;;;5000042;28;20436;-66
2022/09/23 12:00:41;;;;;;;7.10;4.30;;;21.50;99.90;;;;;;5002125;28;21192;-66
2022/09/23 12:03:24;;;;;;;5.70;4.30;;;21.80;99.90;;;;;;4999239;28;20483;-66
2022/09/23 12:05:59;;;;;;;4.80;4.33;;;22.00;99.90;;;;;;4985169;28;20472;-66
2022/09/23 12:08:36;;;;;;;4.33;3.40;;;21.90;99.80;;;;;;4997379;28;20475;-66
2022/09/23 12:11:10;;;;;;;4.90;4.20;;;22.00;98.10;;;;;;4984140;28;20937;-65
2022/09/23 12:13:54;;;;;;;4.23;3.47;;;21.90;98.60;;;;;;5002651;28;20428;-66
2022/09/23 12:16:47;;;;;;;3.43;3.13;;;22.10;96.30;;;;;;4999263;28;20448;-65
2022/09/23 12:19:19;;;;;;;7.97;3.60;;;22.40;94.90;;;;;;5004703;28;20440;-65
2022/09/23 12:22:03;;;;;;;4.20;3.37;;;22.30;94.20;;;;;;5001942;28;20416;-65
2022/09/23 12:24:38;;;;;;;3.37;2.53;;;22.30;93.90;;;;;;5003915;28;20407;-65
2022/09/23 12:27:10;;;;;;;3.60;3.20;;;22.50;92.60;;;;;;5003680;28;20419;-65
2022/09/23 12:29:39;;;;;;;5.13;3.17;;;22.70;91.70;;;;;;5001228;28;20956;-65
2022/09/23 12:32:08;;;;;;;3.33;2.97;;;23.10;91.30;;;;;;5000512;28;21526;-65
2022/09/23 12:34:47;;;;;;;3.60;3.00;;;23.20;91.50;;;;;;5000420;28;20451;-65
2022/09/23 12:37:23;;;;;;;3.60;3.30;;;23.30;91.10;;;;;;4999101;28;20499;-65
2022/09/23 12:39:48;;;;;;;3.63;3.30;;;23.50;90.70;;;;;;4999564;28;20417;-65
2022/09/23 12:42:19;;;;;;;4.27;3.20;;;23.50;90.40;;;;;;5003431;28;20423;-65
2022/09/23 12:44:47;;;;;;;4.13;3.30;;;23.60;90.20;;;;;;4993318;28;20241;-65
2022/09/23 12:47:19;;;;;;;6.80;5.00;;;23.80;87.30;;;;;;5005519;28;20423;-67
2022/09/23 12:49:46;;;;;;;4.67;4.27;;;23.50;88.60;;;;;;5002174;28;20463;-65
2022/09/23 12:52:15;;;;;;;3.70;3.40;;;23.70;88.20;;;;;;5007022;28;20408;-65
2022/09/23 12:54:43;;;;;;;4.60;3.57;;;23.30;87.10;;;;;;5004723;28;20809;-66
2022/09/23 12:57:16;;;;;;;4.63;3.47;;;23.60;86.50;;;;;;5003939;28;20991;-65
2022/09/23 12:59:53;;;;;;;4.20;3.50;;;23.80;85.50;;;;;;4985956;28;20459;-65
2022/09/23 13:02:39;;;;;;;4.40;3.40;;;23.90;83.80;;;;;;5028283;22;20610;-71
2022/09/23 13:08:07;;;;;;;6.10;3.50;;;23.70;83.80;;;;;;5014876;28;20535;-68
2022/09/23 13:10:43;;;;;;;3.60;3.03;;;23.50;84.20;;;;;;5000956;28;20433;-71
2022/09/23 13:13:19;;;;;;;4.87;3.50;;;23.60;83.30;;;;;;4993691;28;20432;-71
2022/09/23 13:15:45;;;;;;;3.87;3.50;;;23.30;82.80;;;;;;4996541;28;21206;-72
2022/09/23 13:18:20;;;;;;;6.77;3.67;;;23.40;83.20;;;;;;4997047;28;20489;-70
2022/09/23 13:20:48;;;;;;;4.30;3.70;;;23.40;83.80;;;;;;5000970;28;20814;-71
2022/09/23 13:23:27;;;;;;;15.40;4.10;;;23.40;84.00;;;;;;4993870;28;20424;-71